createdAt,value
2022-08-07T00:00:24.741Z,101226.77
2022-08-07T00:02:53.643Z,101228.09
2022-08-07T00:05:23.627Z,101226.59
2022-08-07T00:08:00.102Z,101227.25
2022-08-07T00:10:31.368Z,101227.13
2022-08-07T00:13:03.113Z,101228.10
2022-08-07T00:15:46.258Z,101232.48
2022-08-07T00:18:20.367Z,101238.46
2022-08-07T00:21:01.387Z,101242.83
2022-08-07T00:23:30.634Z,101240.23
2022-08-07T00:26:02.826Z,101236.70
2022-08-07T00:28:41.826Z,101239.88
2022-08-07T00:31:16.616Z,101242.19
2022-08-07T00:33:47.804Z,101245.77
2022-08-07T00:36:15.215Z,101247.25
2022-08-07T00:38:43.941Z,101247.27
2022-08-07T00:41:14.897Z,101242.38
2022-08-07T00:44:01.649Z,101248.56
2022-08-07T00:46:33.225Z,101248.40
2022-08-07T00:49:03.208Z,101246.09
2022-08-07T00:51:57.719Z,101251.80
2022-08-07T00:54:19.886Z,101250.49
2022-08-07T00:56:49.579Z,101249.83
2022-08-07T00:59:20.350Z,101248.95
2022-08-07T01:02:09.020Z,101246.19
2022-08-07T01:04:47.395Z,101255.50
2022-08-07T01:07:15.564Z,101249.94
2022-08-07T01:10:07.153Z,101249.65
2022-08-07T01:12:31.209Z,101252.70
2022-08-07T01:15:01.058Z,101252.39
2022-08-07T01:17:31.953Z,101251.16
2022-08-07T01:20:08.902Z,101253.31
2022-08-07T01:22:46.537Z,101250.65
2022-08-07T01:25:53.913Z,101251.89
2022-08-07T01:28:12.873Z,101248.00
2022-08-07T01:30:40.816Z,101251.36
2022-08-07T01:33:10.124Z,101253.55
2022-08-07T01:35:53.249Z,101250.08
2022-08-07T01:38:29.278Z,101256.89
2022-08-07T01:41:03.814Z,101257.13
2022-08-07T01:43:34.687Z,101257.25
2022-08-07T01:46:08.285Z,101251.64
2022-08-07T01:48:42.404Z,101252.88
2022-08-07T01:52:01.153Z,101254.80
2022-08-07T01:54:19.218Z,101255.72
2022-08-07T01:57:24.932Z,101249.70
2022-08-07T02:00:13.005Z,101247.60
2022-08-07T02:03:11.883Z,101248.20
2022-08-07T02:05:48.451Z,101245.59
2022-08-07T02:08:33.937Z,101245.45
2022-08-07T02:11:03.857Z,101244.96
2022-08-07T02:13:57.426Z,101247.83
2022-08-07T02:16:32.960Z,101247.36
2022-08-07T02:19:05.788Z,101242.43
2022-08-07T02:21:56.089Z,101241.45
2022-08-07T02:24:25.434Z,101243.10
2022-08-07T02:26:58.523Z,101242.71
2022-08-07T02:29:31.231Z,101239.23
2022-08-07T02:32:00.392Z,101240.79
2022-08-07T02:34:30.362Z,101239.06
2022-08-07T02:37:00.790Z,101242.46
2022-08-07T02:40:02.546Z,101243.00
2022-08-07T02:42:19.851Z,101243.39
2022-08-07T02:44:51.887Z,101242.73
2022-08-07T02:47:23.631Z,101246.86
2022-08-07T02:49:59.083Z,101244.45
2022-08-07T02:52:37.536Z,101242.84
2022-08-07T02:55:27.368Z,101243.19
2022-08-07T02:58:03.168Z,101247.10
2022-08-07T03:00:35.276Z,101249.60
2022-08-07T03:03:06.337Z,101245.73
2022-08-07T03:05:37.163Z,101251.25
2022-08-07T03:08:10.109Z,101253.75
2022-08-07T03:10:46.516Z,101255.71
2022-08-07T03:13:20.144Z,101256.43
2022-08-07T03:15:56.147Z,101257.73
2022-08-07T03:18:34.807Z,101259.30
2022-08-07T03:21:08.622Z,101263.04
2022-08-07T03:24:17.535Z,101262.56
2022-08-07T03:26:33.349Z,101259.17
2022-08-07T03:29:11.191Z,101254.21
2022-08-07T03:31:46.418Z,101255.05
2022-08-07T03:34:22.173Z,101258.63
2022-08-07T03:36:54.310Z,101259.09
2022-08-07T03:39:59.039Z,101258.09
2022-08-07T03:42:12.368Z,101258.65
2022-08-07T03:44:40.331Z,101259.88
2022-08-07T03:47:14.197Z,101258.96
2022-08-07T03:49:51.850Z,101263.25
2022-08-07T03:52:26.374Z,101261.30
2022-08-07T03:55:07.125Z,101262.39
2022-08-07T03:59:06.762Z,101262.56
2022-08-07T04:00:35.419Z,101259.56
2022-08-07T04:03:04.398Z,101265.20
2022-08-07T04:05:42.462Z,101265.38
2022-08-07T04:08:18.851Z,101267.84
2022-08-07T04:10:54.726Z,101267.27
2022-08-07T04:14:33.269Z,101273.41
2022-08-07T04:16:30.372Z,101272.12
2022-08-07T04:19:04.258Z,101275.81
2022-08-07T04:21:48.030Z,101276.88
2022-08-07T04:24:33.760Z,101277.55
2022-08-07T04:27:06.432Z,101281.44
2022-08-07T04:30:02.313Z,101281.41
2022-08-07T04:32:47.969Z,101285.85
2022-08-07T04:35:16.635Z,101285.30
2022-08-07T04:38:03.275Z,101287.71
2022-08-07T04:40:32.743Z,101287.09
2022-08-07T04:43:02.048Z,101290.96
2022-08-07T04:46:00.471Z,101291.81
2022-08-07T04:48:50.977Z,101298.52
2022-08-07T04:51:43.317Z,101297.73
2022-08-07T04:54:30.306Z,101300.75
2022-08-07T04:58:13.258Z,101305.48
2022-08-07T05:00:13.024Z,101306.89
2022-08-07T05:02:53.257Z,101311.55
2022-08-07T05:05:53.842Z,101314.02
2022-08-07T05:08:58.965Z,101316.70
2022-08-07T05:11:24.540Z,101323.51
2022-08-07T05:14:55.621Z,101327.33
2022-08-07T05:16:52.795Z,101328.73
2022-08-07T05:19:32.655Z,101329.88
2022-08-07T05:22:13.684Z,101333.98
2022-08-07T05:24:59.630Z,101336.64
2022-08-07T05:28:16.751Z,101338.55
2022-08-07T05:30:21.160Z,101338.39
2022-08-07T05:32:59.715Z,101339.59
2022-08-07T05:35:33.444Z,101340.92
2022-08-07T05:38:09.025Z,101338.66
2022-08-07T05:40:49.547Z,101337.94
2022-08-07T05:43:19.517Z,101338.06
2022-08-07T05:46:06.768Z,101341.30
2022-08-07T05:48:34.630Z,101341.00
2022-08-07T05:51:02.306Z,101338.01
2022-08-07T05:54:09.727Z,101342.14
2022-08-07T05:56:20.042Z,101341.43
2022-08-07T05:59:02.514Z,101338.63
2022-08-07T06:01:35.668Z,101337.25
2022-08-07T06:04:05.359Z,101340.20
2022-08-07T06:06:36.928Z,101341.80
2022-08-07T06:09:07.341Z,101340.08
2022-08-07T06:11:38.044Z,101343.10
2022-08-07T06:14:13.255Z,101344.51
2022-08-07T06:16:55.919Z,101336.98
2022-08-07T06:19:52.233Z,101339.27
2022-08-07T06:22:23.997Z,101338.10
2022-08-07T06:25:35.026Z,101338.10
2022-08-07T06:28:06.368Z,101340.71
2022-08-07T06:30:41.324Z,101340.77
2022-08-07T06:33:16.660Z,101341.40
2022-08-07T06:36:06.221Z,101339.18
2022-08-07T06:38:33.495Z,101341.64
2022-08-07T06:41:06.972Z,101344.20
2022-08-07T06:43:45.990Z,101346.10
2022-08-07T06:46:31.633Z,101345.13
2022-08-07T06:49:04.817Z,101348.83
2022-08-07T06:51:35.150Z,101348.35
2022-08-07T06:55:34.341Z,101351.03
2022-08-07T06:57:09.254Z,101349.42
2022-08-07T07:00:11.977Z,101353.61
2022-08-07T07:02:53.708Z,101355.76
2022-08-07T07:06:03.074Z,101358.66
2022-08-07T07:08:12.487Z,101353.88
2022-08-07T07:10:54.653Z,101356.83
2022-08-07T07:13:56.231Z,101353.77
2022-08-07T07:16:33.312Z,101350.23
2022-08-07T07:19:54.526Z,101344.34
2022-08-07T07:22:05.137Z,101351.17
2022-08-07T07:24:56.856Z,101346.68
2022-08-07T07:27:35.519Z,101346.52
2022-08-07T07:30:32.547Z,101345.52
2022-08-07T07:33:06.367Z,101340.98
2022-08-07T07:35:54.257Z,101344.77
2022-08-07T07:38:26.809Z,101334.78
2022-08-07T07:41:02.660Z,101336.53
2022-08-07T07:44:13.652Z,101335.58
2022-08-07T07:46:39.930Z,101331.52
2022-08-07T07:50:35.101Z,101329.13
2022-08-07T07:52:03.928Z,101331.38
2022-08-07T07:54:34.256Z,101330.38
2022-08-07T07:57:04.954Z,101327.09
2022-08-07T07:59:52.669Z,101330.39
2022-08-07T08:02:35.251Z,101326.27
2022-08-07T08:05:14.252Z,101325.45
2022-08-07T08:07:59.703Z,101328.65
2022-08-07T08:10:38.068Z,101330.00
2022-08-07T08:13:10.343Z,101325.33
2022-08-07T08:18:32.059Z,101323.11
2022-08-07T08:18:36.618Z,101323.48
2022-08-07T08:21:02.170Z,101324.71
2022-08-07T08:23:52.169Z,101324.11
2022-08-07T08:26:40.911Z,101320.80
2022-08-07T08:29:10.834Z,101323.63
2022-08-07T08:31:58.983Z,101317.21
2022-08-07T08:34:34.249Z,101319.72
2022-08-07T08:37:03.794Z,101323.58
2022-08-07T08:39:39.359Z,101319.91
2022-08-07T08:42:51.749Z,101321.71
2022-08-07T08:45:42.001Z,101321.80
2022-08-07T08:48:38.323Z,101322.05
2022-08-07T08:52:12.759Z,101319.56
2022-08-07T08:55:01.198Z,101321.52
2022-08-07T08:57:55.904Z,101325.11
2022-08-07T09:00:28.788Z,101321.55
2022-08-07T09:03:13.166Z,101320.92
2022-08-07T09:05:53.491Z,101324.09
2022-08-07T09:08:48.340Z,101321.84
2022-08-07T09:11:43.522Z,101322.77
2022-08-07T09:14:50.874Z,101314.89
2022-08-07T09:17:58.956Z,101310.89
2022-08-07T09:20:41.919Z,101308.58
2022-08-07T09:24:32.255Z,101311.70
2022-08-07T09:26:47.851Z,101307.84
2022-08-07T09:30:03.873Z,101301.15
2022-08-07T09:32:16.996Z,101299.21
2022-08-07T09:36:04.244Z,101298.73
2022-08-07T09:38:10.317Z,101295.61
2022-08-07T09:40:56.493Z,101298.05
2022-08-07T09:44:06.500Z,101296.73
2022-08-07T09:47:51.361Z,101292.50
2022-08-07T09:50:19.061Z,101294.44
2022-08-07T09:53:06.066Z,101290.61
2022-08-07T09:56:05.248Z,101282.98
2022-08-07T09:58:50.979Z,101274.67
2022-08-07T10:01:51.132Z,101272.92
2022-08-07T10:04:45.977Z,101273.23
2022-08-07T10:07:31.386Z,101275.42
2022-08-07T10:10:30.015Z,101276.31
2022-08-07T10:13:54.739Z,101266.81
2022-08-07T10:16:30.368Z,101269.63
2022-08-07T10:19:54.281Z,101268.94
2022-08-07T10:22:36.746Z,101260.61
2022-08-07T10:25:43.014Z,101257.73
2022-08-07T10:28:30.725Z,101258.26
2022-08-07T10:31:31.450Z,101260.04
2022-08-07T10:34:18.256Z,101254.13
2022-08-07T10:36:56.921Z,101260.28
2022-08-07T10:40:02.919Z,101253.98
2022-08-07T10:42:57.291Z,101251.90
2022-08-07T10:45:57.557Z,101250.41
2022-08-07T10:48:44.145Z,101254.73
2022-08-07T10:51:57.136Z,101251.66
2022-08-07T10:54:39.706Z,101252.35
2022-08-07T10:57:33.960Z,101247.30
2022-08-07T11:00:36.700Z,101241.34
2022-08-07T11:03:11.313Z,101242.60
2022-08-07T11:06:15.766Z,101240.48
2022-08-07T11:09:12.705Z,101239.55
2022-08-07T11:12:04.622Z,101238.27
2022-08-07T11:15:00.379Z,101231.73
2022-08-07T11:17:45.298Z,101233.75
2022-08-07T11:20:24.686Z,101228.60
2022-08-07T11:22:55.773Z,101233.77
2022-08-07T11:25:30.898Z,101231.96
2022-08-07T11:28:22.229Z,101227.70
2022-08-07T11:30:52.283Z,101223.85
2022-08-07T11:33:58.593Z,101222.82
2022-08-07T11:36:57.940Z,101220.95
2022-08-07T11:39:59.316Z,101226.11
2022-08-07T11:42:54.057Z,101220.63
2022-08-07T11:45:53.324Z,101217.61
2022-08-07T11:48:58.898Z,101209.46
2022-08-07T11:51:50.645Z,101207.70
2022-08-07T11:54:33.393Z,101206.73
2022-08-07T11:58:00.670Z,101200.22
2022-08-07T12:00:35.007Z,101195.35
2022-08-07T12:03:41.499Z,101201.41
2022-08-07T12:06:40.376Z,101196.45
2022-08-07T12:09:54.047Z,101196.17
2022-08-07T12:12:35.960Z,101191.16
2022-08-07T12:15:45.964Z,101189.37
2022-08-07T12:18:11.363Z,101187.02
2022-08-07T12:20:46.639Z,101183.42
2022-08-07T12:24:05.797Z,101183.64
2022-08-07T12:26:29.311Z,101181.87
2022-08-07T12:29:21.065Z,101182.61
2022-08-07T12:32:39.739Z,101186.44
2022-08-07T12:35:11.984Z,101184.45
2022-08-07T12:38:11.205Z,101180.34
2022-08-07T12:40:50.082Z,101175.56
2022-08-07T12:44:03.617Z,101176.47
2022-08-07T12:46:26.417Z,101174.61
2022-08-07T12:49:10.252Z,101169.91
2022-08-07T12:52:14.601Z,101172.49
2022-08-07T12:55:02.815Z,101173.10
2022-08-07T12:57:38.986Z,101173.08
2022-08-07T13:00:34.607Z,101177.42
2022-08-07T13:03:07.050Z,101175.77
2022-08-07T13:06:03.571Z,101170.26
2022-08-07T13:08:50.119Z,101170.75
2022-08-07T13:12:10.463Z,101164.65
2022-08-07T13:15:10.994Z,101163.78
2022-08-07T13:17:56.247Z,101158.13
2022-08-07T13:20:41.072Z,101154.94
2022-08-07T13:24:01.301Z,101154.32
2022-08-07T13:26:25.537Z,101150.20
2022-08-07T13:29:04.248Z,101148.30
2022-08-07T13:31:54.904Z,101147.73
2022-08-07T13:34:55.702Z,101143.77
2022-08-07T13:38:00.940Z,101145.77
2022-08-07T13:40:42.334Z,101147.89
2022-08-07T13:43:16.282Z,101147.67
2022-08-07T13:46:11.034Z,101146.05
2022-08-07T13:48:39.417Z,101140.67
2022-08-07T13:51:27.675Z,101140.77
2022-08-07T13:54:16.650Z,101137.77
2022-08-07T13:56:55.943Z,101135.19
2022-08-07T13:59:31.966Z,101138.81
2022-08-07T14:02:10.431Z,101137.32
2022-08-07T14:04:44.029Z,101132.88
2022-08-07T14:07:22.804Z,101131.39
2022-08-07T14:10:15.035Z,101128.64
2022-08-07T14:13:05.684Z,101125.88
2022-08-07T14:15:40.161Z,101118.23
2022-08-07T14:18:28.674Z,101120.52
2022-08-07T14:21:21.111Z,101117.55
2022-08-07T14:24:04.263Z,101112.85
2022-08-07T14:27:01.882Z,101108.19
2022-08-07T14:30:06.136Z,101101.71
2022-08-07T14:32:43.296Z,101099.66
2022-08-07T14:35:16.284Z,101095.44
2022-08-07T14:38:06.002Z,101097.27
2022-08-07T14:40:36.507Z,101101.20
2022-08-07T14:43:58.582Z,101103.55
2022-08-07T14:45:58.866Z,101098.99
2022-08-07T14:48:34.780Z,101099.16
2022-08-07T14:51:16.149Z,101094.59
2022-08-07T14:54:08.825Z,101091.91
2022-08-07T14:56:33.694Z,101087.79
2022-08-07T14:59:13.854Z,101086.61
2022-08-07T15:01:58.285Z,101085.23
2022-08-07T15:04:28.943Z,101081.27
2022-08-07T15:06:57.432Z,101083.94
2022-08-07T15:09:57.643Z,101076.16
2022-08-07T15:12:30.409Z,101074.86
2022-08-07T15:18:02.776Z,101075.02
2022-08-07T15:20:54.615Z,101075.02
2022-08-07T15:25:12.959Z,101064.52
2022-08-07T15:26:21.194Z,101066.27
2022-08-07T15:28:58.459Z,101063.52
2022-08-07T15:31:57.679Z,101060.36
2022-08-07T15:34:17.221Z,101058.33
2022-08-07T15:37:02.832Z,101058.77
2022-08-07T15:42:43.667Z,101055.36
2022-08-07T15:45:55.490Z,101055.67
2022-08-07T15:48:30.545Z,101052.10
2022-08-07T15:54:00.991Z,101050.64
2022-08-07T15:56:41.781Z,101055.51
2022-08-07T15:59:20.266Z,101051.80
2022-08-07T16:02:08.735Z,101051.27
2022-08-07T16:04:38.058Z,101048.27
2022-08-07T16:08:30.285Z,101049.34
2022-08-07T16:10:14.954Z,101046.28
2022-08-07T16:13:17.468Z,101043.57
2022-08-07T16:16:43.259Z,101042.07
2022-08-07T16:19:42.989Z,101036.96
2022-08-07T16:22:55.363Z,101036.46
2022-08-07T16:25:52.347Z,101040.95
2022-08-07T16:30:07.634Z,101037.80
2022-08-07T16:32:34.763Z,101041.28
2022-08-07T16:35:56.858Z,101040.78
2022-08-07T16:38:14.597Z,101038.20
2022-08-07T16:41:12.429Z,101036.79
2022-08-07T16:44:47.419Z,101032.24
2022-08-07T16:47:30.345Z,101039.00
2022-08-07T16:50:41.666Z,101035.02
2022-08-07T16:54:02.946Z,101041.77
2022-08-07T16:56:04.404Z,101040.86
2022-08-07T16:59:15.047Z,101041.60
2022-08-07T17:03:04.875Z,101041.60
2022-08-07T17:06:28.470Z,101038.95
2022-08-07T17:09:04.345Z,101041.13
2022-08-07T17:12:01.799Z,101042.94
2022-08-07T17:18:49.625Z,101051.86
2022-08-07T17:21:24.113Z,101062.76
2022-08-07T17:24:38.759Z,101063.26
2022-08-07T17:27:19.760Z,101065.40
2022-08-07T17:30:14.821Z,101067.88
2022-08-07T17:34:09.066Z,101066.95
2022-08-07T17:36:20.346Z,101066.80
2022-08-07T17:39:10.087Z,101070.52
2022-08-07T17:42:03.582Z,101067.14
2022-08-07T17:44:49.551Z,101070.84
2022-08-07T17:47:42.375Z,101074.10
2022-08-07T17:50:30.623Z,101076.72
2022-08-07T17:53:06.275Z,101079.80
2022-08-07T17:55:55.874Z,101079.61
2022-08-07T17:58:40.715Z,101080.91
2022-08-07T18:01:21.941Z,101081.67
2022-08-07T18:04:16.114Z,101086.84
2022-08-07T18:07:20.016Z,101088.59
2022-08-07T18:10:06.430Z,101088.05
2022-08-07T18:12:51.661Z,101092.40
2022-08-07T18:15:33.078Z,101088.23
2022-08-07T18:18:47.600Z,101092.60
2022-08-07T18:21:42.064Z,101096.49
2022-08-07T18:24:33.812Z,101094.84
2022-08-07T18:27:38.867Z,101094.23
2022-08-07T18:30:31.054Z,101093.38
2022-08-07T18:33:17.058Z,101097.31
2022-08-07T18:36:16.959Z,101103.17
2022-08-07T18:40:05.208Z,101102.42
2022-08-07T18:42:12.971Z,101100.94
2022-08-07T18:45:44.363Z,101103.29
2022-08-07T18:48:00.748Z,101109.09
2022-08-07T18:50:46.334Z,101114.50
2022-08-07T18:53:54.347Z,101117.27
2022-08-07T18:57:06.134Z,101116.84
2022-08-07T19:00:32.995Z,101114.01
2022-08-07T19:03:15.735Z,101117.04
2022-08-07T19:06:09.420Z,101116.11
2022-08-07T19:08:58.652Z,101117.95
2022-08-07T19:12:04.981Z,101119.20
2022-08-07T19:14:58.760Z,101116.37
2022-08-07T19:17:54.517Z,101119.45
2022-08-07T19:21:10.098Z,101115.10
2022-08-07T19:23:59.200Z,101121.09
2022-08-07T19:27:01.865Z,101121.77
2022-08-07T19:31:06.122Z,101122.52
2022-08-07T19:32:26.081Z,101122.17
2022-08-07T19:35:11.047Z,101120.91
2022-08-07T19:37:56.374Z,101118.98
2022-08-07T19:40:33.209Z,101119.89
2022-08-07T19:43:10.804Z,101122.84
2022-08-07T19:46:07.517Z,101122.00
2022-08-07T19:48:42.280Z,101123.61
2022-08-07T19:51:19.896Z,101123.08
2022-08-07T19:54:31.488Z,101125.27
2022-08-07T19:57:51.490Z,101126.41
2022-08-07T19:59:42.132Z,101128.59
2022-08-07T20:02:19.617Z,101129.69
2022-08-07T20:04:50.482Z,101129.20
2022-08-07T20:07:46.120Z,101131.02
2022-08-07T20:10:37.233Z,101129.59
2022-08-07T20:13:22.972Z,101131.89
2022-08-07T20:15:57.851Z,101130.87
2022-08-07T20:18:32.349Z,101133.38
2022-08-07T20:21:20.845Z,101131.71
2022-08-07T20:24:00.408Z,101135.35
2022-08-07T20:26:38.482Z,101136.20
2022-08-07T20:29:46.712Z,101137.98
2022-08-07T20:32:11.626Z,101134.96
2022-08-07T20:34:52.320Z,101137.41
2022-08-07T20:37:55.213Z,101137.20
2022-08-07T20:40:32.367Z,101135.96
2022-08-07T20:43:03.521Z,101137.30
2022-08-07T20:46:27.590Z,101134.06
2022-08-07T20:48:33.922Z,101130.81
2022-08-07T20:51:09.680Z,101136.69
2022-08-07T20:54:03.780Z,101135.39
2022-08-07T20:56:32.270Z,101131.05
2022-08-07T20:59:05.298Z,101132.05
2022-08-07T21:01:45.281Z,101132.08
2022-08-07T21:04:22.586Z,101129.42
2022-08-07T21:06:55.256Z,101130.04
2022-08-07T21:09:52.171Z,101129.27
2022-08-07T21:12:25.700Z,101132.55
2022-08-07T21:14:58.935Z,101128.50
2022-08-07T21:18:03.404Z,101129.83
2022-08-07T21:20:26.571Z,101132.69
2022-08-07T21:23:07.404Z,101130.80
2022-08-07T21:26:01.501Z,101126.73
2022-08-07T21:29:12.960Z,101134.89
2022-08-07T21:32:43.808Z,101135.50
2022-08-07T21:35:02.868Z,101136.67
2022-08-07T21:37:58.440Z,101138.71
2022-08-07T21:40:27.098Z,101138.52
2022-08-07T21:43:04.794Z,101139.41
2022-08-07T21:46:04.906Z,101138.33
2022-08-07T21:48:44.077Z,101135.31
2022-08-07T21:51:33.302Z,101133.59
2022-08-07T21:54:46.078Z,101137.02
2022-08-07T21:57:30.934Z,101138.40
2022-08-07T22:00:22.664Z,101139.06
2022-08-07T22:03:10.422Z,101146.48
2022-08-07T22:06:28.753Z,101145.27
2022-08-07T22:09:07.954Z,101146.02
2022-08-07T22:12:05.361Z,101143.70
2022-08-07T22:14:37.931Z,101141.13
2022-08-07T22:17:35.788Z,101144.68
2022-08-07T22:20:23.193Z,101148.00
2022-08-07T22:23:06.590Z,101144.67
2022-08-07T22:25:53.377Z,101148.45
2022-08-07T22:28:37.431Z,101147.09
2022-08-07T22:31:42.337Z,101148.39
2022-08-07T22:34:18.250Z,101146.42
2022-08-07T22:37:12.808Z,101147.58
2022-08-07T22:39:52.672Z,101146.17
2022-08-07T22:42:29.631Z,101142.29
2022-08-07T22:45:02.422Z,101142.35
2022-08-07T22:47:52.549Z,101141.01
2022-08-07T22:50:29.093Z,101143.27
2022-08-07T22:54:05.413Z,101145.65
2022-08-07T22:56:34.728Z,101154.47
2022-08-07T22:59:10.926Z,101155.83
2022-08-07T23:02:28.694Z,101155.58
2022-08-07T23:06:15.409Z,101157.64
2022-08-07T23:08:47.859Z,101158.46
2022-08-07T23:11:59.142Z,101159.84
2022-08-07T23:14:38.257Z,101162.07
2022-08-07T23:17:34.121Z,101158.76
2022-08-07T23:20:40.745Z,101161.49
2022-08-07T23:24:05.568Z,101164.75
2022-08-07T23:26:54.891Z,101166.19
2022-08-07T23:30:37.523Z,101162.39
2022-08-07T23:34:34.211Z,101168.77
2022-08-07T23:36:17.127Z,101172.88
2022-08-07T23:39:01.940Z,101178.45
2022-08-07T23:42:04.289Z,101178.15
2022-08-07T23:45:15.260Z,101181.09
2022-08-07T23:48:24.038Z,101178.89
2022-08-07T23:51:02.936Z,101176.59
2022-08-07T23:53:53.377Z,101175.66
2022-08-07T23:56:53.529Z,101171.34
